createdAt,value
2018-05-17T00:00:59.424Z,7.37
2018-05-17T00:04:01.956Z,8.57
2018-05-17T00:07:04.440Z,8.17
2018-05-17T00:10:06.937Z,7.40
2018-05-17T00:13:09.452Z,8.43
2018-05-17T00:16:11.960Z,11.90
2018-05-17T00:19:14.488Z,11.47
2018-05-17T00:22:17.020Z,10.13
2018-05-17T00:25:19.546Z,11.20
2018-05-17T00:28:22.079Z,7.83
2018-05-17T00:31:24.606Z,10.07
2018-05-17T00:34:27.137Z,9.10
2018-05-17T00:37:29.662Z,9.10
2018-05-17T00:40:32.165Z,8.50
2018-05-17T00:43:34.669Z,9.43
2018-05-17T00:46:37.184Z,8.67
2018-05-17T00:49:39.714Z,8.70
2018-05-17T00:52:42.202Z,8.60
2018-05-17T00:55:44.678Z,10.33
2018-05-17T00:58:47.161Z,10.97
2018-05-17T01:01:49.646Z,9.67
2018-05-17T01:04:52.163Z,9.47
2018-05-17T01:07:54.717Z,10.40
2018-05-17T01:10:57.219Z,11.53
2018-05-17T01:13:59.737Z,10.13
2018-05-17T01:17:02.317Z,9.53
2018-05-17T01:20:04.829Z,11.00
2018-05-17T01:23:07.368Z,12.20
2018-05-17T01:26:09.859Z,11.43
2018-05-17T01:29:12.378Z,11.03
2018-05-17T01:32:14.913Z,11.20
2018-05-17T01:35:17.407Z,11.90
2018-05-17T01:38:26.385Z,11.43
2018-05-17T01:41:28.873Z,11.07
2018-05-17T01:44:31.392Z,14.53
2018-05-17T01:47:33.914Z,11.43
2018-05-17T01:50:37.018Z,12.43
2018-05-17T01:53:39.527Z,12.27
2018-05-17T01:56:42.011Z,11.87
2018-05-17T01:59:44.512Z,12.60
2018-05-17T02:02:47.032Z,12.40
2018-05-17T02:05:49.560Z,13.10
2018-05-17T02:08:52.072Z,13.33
2018-05-17T02:11:54.593Z,13.47
2018-05-17T02:14:57.109Z,12.23
2018-05-17T02:17:59.612Z,13.53
2018-05-17T02:21:02.143Z,13.30
2018-05-17T02:24:05.674Z,12.50
2018-05-17T02:27:08.195Z,12.10
2018-05-17T02:30:10.711Z,12.40
2018-05-17T02:33:13.247Z,14.90
2018-05-17T02:36:15.760Z,11.97
2018-05-17T02:39:18.304Z,14.43
2018-05-17T02:42:20.807Z,12.10
2018-05-17T02:45:23.324Z,12.43
2018-05-17T02:48:25.864Z,12.40
2018-05-17T02:51:28.348Z,14.07
2018-05-17T02:54:30.888Z,12.20
2018-05-17T02:57:33.376Z,13.20
2018-05-17T03:00:35.902Z,15.20
2018-05-17T03:03:38.408Z,16.03
2018-05-17T03:06:41.012Z,14.87
2018-05-17T03:09:43.511Z,15.40
2018-05-17T03:12:46.097Z,15.47
2018-05-17T03:15:48.633Z,17.97
2018-05-17T03:18:51.158Z,16.20
2018-05-17T03:21:53.650Z,16.57
2018-05-17T03:24:56.184Z,16.13
2018-05-17T03:27:58.684Z,15.47
2018-05-17T03:31:01.213Z,19.33
2018-05-17T03:34:03.779Z,17.50
2018-05-17T03:37:06.304Z,16.50
2018-05-17T03:40:08.829Z,17.03
2018-05-17T03:43:11.369Z,16.87
2018-05-17T03:46:13.869Z,17.53
2018-05-17T03:49:16.360Z,18.13
2018-05-17T03:52:18.887Z,16.27
2018-05-17T03:55:21.376Z,17.07
2018-05-17T03:58:23.902Z,17.80
2018-05-17T04:01:38.003Z,21.10
2018-05-17T04:04:52.329Z,18.97
2018-05-17T04:07:54.827Z,19.47
2018-05-17T04:10:57.349Z,17.77
2018-05-17T04:13:59.885Z,20.57
2018-05-17T04:17:02.409Z,22.73
2018-05-17T04:20:04.967Z,21.37
2018-05-17T04:23:08.180Z,18.83
2018-05-17T04:26:10.742Z,20.87
2018-05-17T04:29:13.311Z,22.67
2018-05-17T04:32:15.836Z,20.30
2018-05-17T04:35:18.365Z,23.07
2018-05-17T04:38:20.894Z,21.37
2018-05-17T04:41:23.425Z,21.60
2018-05-17T04:44:25.953Z,23.60
2018-05-17T04:47:28.480Z,20.67
2018-05-17T04:50:31.024Z,20.70
2018-05-17T04:53:33.554Z,23.60
2018-05-17T04:56:36.332Z,21.20
2018-05-17T04:59:38.857Z,22.27
2018-05-17T05:02:41.442Z,24.27
2018-05-17T05:05:44.002Z,20.67
2018-05-17T05:08:46.536Z,22.30
2018-05-17T05:11:49.052Z,20.97
2018-05-17T05:14:51.612Z,19.83
2018-05-17T05:17:54.111Z,21.67
2018-05-17T05:20:56.636Z,20.20
2018-05-17T05:23:59.173Z,20.10
2018-05-17T05:27:01.667Z,19.37
2018-05-17T05:30:04.188Z,19.13
2018-05-17T05:33:06.682Z,18.67
2018-05-17T05:36:09.217Z,18.47
2018-05-17T05:39:11.747Z,17.43
2018-05-17T05:42:14.323Z,19.50
2018-05-17T05:45:16.847Z,16.43
2018-05-17T05:48:19.348Z,18.60
2018-05-17T05:51:21.851Z,18.57
2018-05-17T05:54:24.435Z,16.70
2018-05-17T05:57:26.974Z,18.43
2018-05-17T06:00:30.150Z,15.40
2018-05-17T06:03:32.643Z,15.23
2018-05-17T06:06:35.151Z,13.83
2018-05-17T06:09:37.684Z,15.77
2018-05-17T06:12:40.189Z,15.93
2018-05-17T06:15:42.772Z,22.00
2018-05-17T06:18:45.248Z,14.00
2018-05-17T06:21:47.778Z,16.03
2018-05-17T06:24:50.294Z,15.70
2018-05-17T06:27:52.833Z,13.60
2018-05-17T06:30:55.357Z,16.67
2018-05-17T06:33:57.846Z,14.43
2018-05-17T06:37:00.369Z,13.17
2018-05-17T06:40:02.884Z,16.07
2018-05-17T06:43:05.366Z,12.53
2018-05-17T06:46:07.857Z,15.00
2018-05-17T06:49:10.389Z,14.73
2018-05-17T06:52:12.914Z,12.73
2018-05-17T06:55:15.410Z,13.50
2018-05-17T06:58:17.888Z,13.03
2018-05-17T07:01:20.398Z,13.40
2018-05-17T07:04:22.943Z,16.50
2018-05-17T07:07:25.441Z,12.90
2018-05-17T07:10:28.001Z,11.60
2018-05-17T07:13:30.576Z,17.13
2018-05-17T07:16:33.087Z,13.13
2018-05-17T07:19:35.604Z,13.93
2018-05-17T07:22:39.634Z,14.53
2018-05-17T07:25:42.137Z,14.73
2018-05-17T07:28:44.661Z,14.63
2018-05-17T07:31:47.207Z,17.73
2018-05-17T07:34:49.822Z,14.70
2018-05-17T07:37:52.410Z,14.77
2018-05-17T07:40:54.983Z,14.90
2018-05-17T07:43:57.494Z,14.97
2018-05-17T07:47:00.034Z,13.40
2018-05-17T07:50:02.546Z,15.93
2018-05-17T07:53:05.100Z,13.47
2018-05-17T07:56:07.603Z,14.83
2018-05-17T07:59:10.181Z,14.27
2018-05-17T08:02:12.760Z,13.30
2018-05-17T08:05:15.244Z,13.30
2018-05-17T08:08:17.805Z,13.47
2018-05-17T08:11:20.389Z,12.80
2018-05-17T08:14:28.299Z,13.80
2018-05-17T08:17:30.910Z,14.63
2018-05-17T08:20:35.077Z,14.27
2018-05-17T08:23:37.688Z,12.03
2018-05-17T08:26:40.193Z,12.97
2018-05-17T08:29:42.708Z,12.93
2018-05-17T08:32:45.249Z,14.27
2018-05-17T08:35:47.773Z,13.73
2018-05-17T08:38:50.311Z,12.73
2018-05-17T08:41:52.880Z,13.40
2018-05-17T08:44:55.376Z,15.77
2018-05-17T08:47:57.890Z,12.27
2018-05-17T08:51:00.396Z,14.07
2018-05-17T08:54:02.896Z,12.67
2018-05-17T08:57:05.425Z,13.20
2018-05-17T09:00:07.949Z,11.43
2018-05-17T09:03:10.490Z,15.33
2018-05-17T09:06:13.042Z,10.93
2018-05-17T09:09:15.564Z,12.77
2018-05-17T09:12:18.113Z,11.03
2018-05-17T09:15:20.636Z,11.53
2018-05-17T09:18:23.419Z,11.10
2018-05-17T09:21:25.976Z,12.23
2018-05-17T09:24:28.540Z,9.60
2018-05-17T09:27:31.079Z,9.57
2018-05-17T09:30:33.643Z,9.33
2018-05-17T09:33:36.329Z,10.90
2018-05-17T09:36:43.810Z,12.33
2018-05-17T09:39:49.701Z,12.73
2018-05-17T09:42:58.367Z,12.03
2018-05-17T09:46:00.978Z,15.10
2018-05-17T09:49:03.566Z,9.93
2018-05-17T09:52:07.561Z,13.60
2018-05-17T09:55:12.195Z,12.63
2018-05-17T09:58:15.212Z,10.70
2018-05-17T10:01:19.943Z,11.30
2018-05-17T10:04:22.559Z,12.87
2018-05-17T10:07:25.266Z,12.10
2018-05-17T10:10:27.939Z,14.63
2018-05-17T10:13:30.511Z,15.23
2018-05-17T10:16:33.161Z,16.80
2018-05-17T10:19:35.752Z,17.53
2018-05-17T10:22:38.281Z,14.90
2018-05-17T10:25:40.872Z,17.63
2018-05-17T10:28:43.409Z,17.97
2018-05-17T10:45:46.776Z,15.13
2018-05-17T10:48:49.428Z,17.33
2018-05-17T10:51:51.876Z,16.10
2018-05-17T10:54:54.408Z,18.73
2018-05-17T10:57:56.952Z,18.53
2018-05-17T11:00:59.516Z,16.70
2018-05-17T11:04:02.072Z,13.80
2018-05-17T11:07:04.580Z,14.10
2018-05-17T11:10:07.114Z,15.33
2018-05-17T11:13:09.672Z,18.87
2018-05-17T11:16:12.209Z,15.20
2018-05-17T11:19:14.732Z,15.87
2018-05-17T11:22:17.327Z,17.67
2018-05-17T11:25:19.858Z,17.30
2018-05-17T11:28:22.409Z,20.63
2018-05-17T11:31:24.938Z,17.57
2018-05-17T11:34:27.465Z,20.93
2018-05-17T11:37:29.973Z,27.23
2018-05-17T11:40:32.464Z,18.30
2018-05-17T11:43:34.979Z,14.70
2018-05-17T11:46:37.504Z,20.37
2018-05-17T11:49:39.987Z,28.50
2018-05-17T11:52:42.520Z,18.50
2018-05-17T11:55:45.046Z,13.33
2018-05-17T11:58:47.564Z,17.27
2018-05-17T12:01:50.136Z,18.30
2018-05-17T12:04:52.682Z,16.37
2018-05-17T12:07:55.184Z,18.17
2018-05-17T12:10:57.740Z,16.83
2018-05-17T12:14:02.204Z,15.00
2018-05-17T12:17:05.215Z,19.13
2018-05-17T12:20:07.766Z,17.20
2018-05-17T12:23:10.363Z,22.03
2018-05-17T12:26:13.110Z,18.63
2018-05-17T12:29:15.629Z,30.90
2018-05-17T12:32:18.170Z,17.47
2018-05-17T12:35:20.695Z,22.30
2018-05-17T12:38:23.245Z,16.83
2018-05-17T12:41:25.793Z,15.63
2018-05-17T12:44:28.351Z,18.93
2018-05-17T12:47:31.553Z,17.90
2018-05-17T12:50:34.090Z,19.70
2018-05-17T12:53:36.622Z,18.13
2018-05-17T12:56:39.188Z,21.37
2018-05-17T12:59:42.578Z,19.77
2018-05-17T13:02:45.126Z,34.77
2018-05-17T13:05:47.656Z,21.37
2018-05-17T13:08:50.768Z,17.43
2018-05-17T13:11:53.320Z,17.10
2018-05-17T13:14:55.887Z,17.27
2018-05-17T13:17:58.412Z,21.27
2018-05-17T13:21:00.996Z,16.17
2018-05-17T13:24:03.527Z,18.73
2018-05-17T13:27:06.045Z,21.10
2018-05-17T13:30:08.722Z,17.07
2018-05-17T13:33:11.166Z,19.27
2018-05-17T13:36:13.701Z,19.10
2018-05-17T13:39:16.332Z,24.87
2018-05-17T13:42:18.907Z,20.83
2018-05-17T13:45:21.522Z,15.87
2018-05-17T13:48:24.108Z,20.27
2018-05-17T13:51:26.687Z,17.60
2018-05-17T13:54:29.289Z,24.17
2018-05-17T13:57:31.849Z,19.60
2018-05-17T14:00:34.705Z,20.07
2018-05-17T14:03:37.276Z,24.03
2018-05-17T14:06:39.895Z,28.13
2018-05-17T14:09:42.557Z,27.83
2018-05-17T14:12:45.077Z,17.40
2018-05-17T14:15:47.638Z,16.93
2018-05-17T14:18:50.259Z,19.93
2018-05-17T14:21:52.972Z,14.53
2018-05-17T14:24:55.613Z,20.60
2018-05-17T14:27:58.250Z,21.73
2018-05-17T14:31:00.858Z,16.13
2018-05-17T14:34:03.669Z,16.23
2018-05-17T14:37:07.475Z,19.13
2018-05-17T14:40:10.411Z,16.70
2018-05-17T14:43:13.227Z,18.20
2018-05-17T14:46:16.108Z,16.47
2018-05-17T14:49:20.018Z,20.17
2018-05-17T14:52:22.892Z,13.60
2018-05-17T14:55:26.743Z,16.83
2018-05-17T14:58:29.468Z,16.83
2018-05-17T15:01:32.142Z,16.50
2018-05-17T15:04:34.953Z,17.67
2018-05-17T15:07:37.698Z,20.77
2018-05-17T15:10:40.276Z,16.90
2018-05-17T15:13:42.884Z,19.63
2018-05-17T15:16:45.520Z,18.27
2018-05-17T15:19:48.267Z,21.60
2018-05-17T15:22:50.857Z,19.47
2018-05-17T15:25:53.459Z,12.77
2018-05-17T15:28:56.892Z,15.47
2018-05-17T15:31:59.560Z,12.80
2018-05-17T15:35:02.175Z,22.53
2018-05-17T15:38:04.851Z,15.73
2018-05-17T15:41:07.471Z,15.83
2018-05-17T15:44:10.977Z,13.73
2018-05-17T15:47:13.690Z,16.10
2018-05-17T15:50:16.325Z,15.63
2018-05-17T15:53:19.082Z,14.53
2018-05-17T15:56:21.810Z,16.73
2018-05-17T15:59:24.472Z,17.33
2018-05-17T16:02:27.176Z,13.40
2018-05-17T16:05:29.888Z,14.10
2018-05-17T16:08:32.562Z,14.83
2018-05-17T16:11:36.617Z,16.50
2018-05-17T16:14:39.378Z,20.57
2018-05-17T16:17:43.210Z,15.13
2018-05-17T16:20:45.947Z,14.33
2018-05-17T16:23:48.744Z,17.70
2018-05-17T16:26:51.463Z,16.97
2018-05-17T16:29:54.150Z,22.30
2018-05-17T16:32:56.775Z,14.63
2018-05-17T16:35:59.306Z,19.80
2018-05-17T16:39:01.889Z,16.53
2018-05-17T16:42:04.459Z,18.03
2018-05-17T16:45:06.973Z,18.53
2018-05-17T16:48:09.675Z,17.87
2018-05-17T16:51:12.203Z,15.83
2018-05-17T16:54:14.807Z,17.27
2018-05-17T16:57:17.404Z,13.07
2018-05-17T17:00:19.982Z,17.17
2018-05-17T17:03:22.629Z,17.17
2018-05-17T17:06:25.210Z,23.97
2018-05-17T17:09:27.858Z,19.90
2018-05-17T17:12:30.482Z,13.30
2018-05-17T17:15:33.071Z,15.03
2018-05-17T17:18:35.753Z,15.83
2018-05-17T17:21:38.421Z,16.00
2018-05-17T17:24:41.324Z,15.80
2018-05-17T17:27:44.150Z,16.97
2018-05-17T17:30:46.810Z,17.40
2018-05-17T17:33:49.427Z,23.77
2018-05-17T17:36:52.052Z,16.47
2018-05-17T17:39:55.754Z,19.53
2018-05-17T17:42:58.781Z,23.83
2018-05-17T17:46:02.327Z,13.27
2018-05-17T17:49:06.010Z,18.63
2018-05-17T17:52:08.784Z,19.47
2018-05-17T17:55:11.453Z,21.57
2018-05-17T17:58:15.489Z,18.40
2018-05-17T18:01:26.566Z,19.37
2018-05-17T18:07:48.097Z,21.00
2018-05-17T18:10:50.825Z,22.60
2018-05-17T18:13:53.633Z,19.67
2018-05-17T18:16:56.508Z,27.43
2018-05-17T18:19:59.451Z,20.87
2018-05-17T18:23:02.312Z,23.00
2018-05-17T18:26:05.181Z,25.47
2018-05-17T18:29:07.915Z,20.13
2018-05-17T18:32:10.625Z,28.40
2018-05-17T18:35:13.924Z,24.53
2018-05-17T18:38:17.429Z,20.87
2018-05-17T18:41:20.242Z,21.40
2018-05-17T18:44:22.966Z,18.53
2018-05-17T18:47:25.709Z,18.03
2018-05-17T18:50:29.406Z,22.07
2018-05-17T18:53:33.807Z,21.23
2018-05-17T18:56:36.745Z,22.67
2018-05-17T18:59:39.931Z,23.87
2018-05-17T19:02:42.837Z,24.23
2018-05-17T19:05:47.689Z,28.23
2018-05-17T19:08:50.723Z,20.83
2018-05-17T19:11:53.533Z,21.77
2018-05-17T19:14:56.424Z,20.43
2018-05-17T19:18:00.885Z,16.87
2018-05-17T19:21:04.277Z,18.97
2018-05-17T19:24:06.980Z,21.13
2018-05-17T19:27:09.945Z,20.83
2018-05-17T19:30:12.772Z,22.53
2018-05-17T19:33:15.798Z,25.40
2018-05-17T19:36:18.480Z,22.07
2018-05-17T19:39:21.538Z,22.47
2018-05-17T19:42:26.573Z,24.00
2018-05-17T19:45:30.947Z,21.93
2018-05-17T19:48:33.639Z,26.17
2018-05-17T19:51:37.392Z,30.47
2018-05-17T19:54:41.906Z,24.77
2018-05-17T19:57:44.772Z,26.13
2018-05-17T20:00:47.793Z,30.93
2018-05-17T20:03:51.060Z,18.50
2018-05-17T20:06:54.585Z,26.43
2018-05-17T20:09:57.420Z,23.47
2018-05-17T20:13:00.495Z,21.23
2018-05-17T20:16:03.301Z,18.90
2018-05-17T20:19:06.617Z,22.70
2018-05-17T20:22:09.252Z,31.20
2018-05-17T20:25:12.252Z,24.10
2018-05-17T20:28:16.324Z,19.63
2018-05-17T20:31:20.873Z,20.63
2018-05-17T20:34:25.841Z,24.07
2018-05-17T20:37:28.855Z,24.73
2018-05-17T20:40:33.003Z,28.30
2018-05-17T20:43:35.593Z,28.10
2018-05-17T20:46:38.224Z,26.17
2018-05-17T20:49:41.753Z,22.43
2018-05-17T20:52:44.321Z,22.80
2018-05-17T20:55:46.980Z,23.30
2018-05-17T20:58:49.623Z,25.13
2018-05-17T21:01:52.138Z,23.43
2018-05-17T21:04:54.784Z,21.63
2018-05-17T21:07:57.352Z,25.93
2018-05-17T21:10:59.935Z,27.67
2018-05-17T21:14:02.584Z,32.27
2018-05-17T21:17:05.231Z,24.53
2018-05-17T21:20:07.788Z,22.27
2018-05-17T21:23:11.622Z,25.43
2018-05-17T21:26:15.661Z,23.40
2018-05-17T21:29:18.230Z,26.60
2018-05-17T21:32:20.812Z,25.83
2018-05-17T21:35:23.358Z,26.13
2018-05-17T21:38:27.067Z,22.33
2018-05-17T21:41:29.594Z,24.43
2018-05-17T21:44:32.142Z,24.67
2018-05-17T21:47:34.755Z,27.00
2018-05-17T21:50:37.357Z,23.30
2018-05-17T21:53:39.886Z,27.17
2018-05-17T21:56:42.491Z,31.50
2018-05-17T21:59:45.114Z,31.50
2018-05-17T22:02:47.753Z,26.43
2018-05-17T22:05:50.394Z,28.63
2018-05-17T22:08:53.068Z,26.83
2018-05-17T22:12:01.233Z,26.33
2018-05-17T22:15:04.250Z,29.80
2018-05-17T22:18:06.844Z,25.33
2018-05-17T22:21:09.452Z,21.13
2018-05-17T22:24:11.976Z,33.30
2018-05-17T22:27:14.507Z,32.43
2018-05-17T22:30:17.043Z,26.00
2018-05-17T22:33:19.611Z,29.50
2018-05-17T22:36:22.648Z,33.13
2018-05-17T22:39:25.246Z,31.37
2018-05-17T22:42:27.883Z,24.50
2018-05-17T22:45:30.458Z,29.10
2018-05-17T22:48:33.095Z,26.77
2018-05-17T22:51:35.828Z,28.13
2018-05-17T22:54:38.360Z,31.20
2018-05-17T22:57:52.696Z,30.97
2018-05-17T23:00:55.216Z,25.13
2018-05-17T23:03:57.761Z,24.10
2018-05-17T23:07:00.325Z,27.60
2018-05-17T23:10:02.884Z,29.40
2018-05-17T23:13:05.455Z,33.20
2018-05-17T23:16:08.083Z,26.23
2018-05-17T23:19:10.656Z,32.67
2018-05-17T23:22:23.826Z,28.13
2018-05-17T23:25:26.341Z,28.67
2018-05-17T23:28:28.942Z,32.13
2018-05-17T23:31:31.481Z,32.53
2018-05-17T23:34:34.010Z,25.27
2018-05-17T23:37:36.585Z,35.87
2018-05-17T23:44:18.198Z,27.20
2018-05-17T23:47:20.903Z,24.87
2018-05-17T23:50:23.469Z,30.30
2018-05-17T23:53:26.026Z,27.23
2018-05-17T23:56:28.552Z,25.60
2018-05-17T23:59:31.105Z,28.83
